createdAt,value
2019-05-07T00:01:12.283Z,13.38
2019-05-07T00:03:42.766Z,13.28
2019-05-07T00:06:13.490Z,13.22
2019-05-07T00:08:44.994Z,13.15
2019-05-07T00:11:15.838Z,13.12
2019-05-07T00:13:46.531Z,13.08
2019-05-07T00:16:17.131Z,13.02
2019-05-07T00:18:47.615Z,13.03
2019-05-07T00:21:18.009Z,12.98
2019-05-07T00:23:48.634Z,13.03
2019-05-07T00:26:19.088Z,13.04
2019-05-07T00:28:49.610Z,13.08
2019-05-07T00:31:23.275Z,13.13
2019-05-07T00:33:53.333Z,13.13
2019-05-07T00:36:33.473Z,13.13
2019-05-07T00:39:16.182Z,13.13
2019-05-07T00:41:53.091Z,13.25
2019-05-07T00:44:23.794Z,13.27
2019-05-07T00:46:54.251Z,13.31
2019-05-07T00:49:26.597Z,13.27
2019-05-07T00:51:57.198Z,13.34
2019-05-07T00:54:28.406Z,13.35
2019-05-07T00:56:58.881Z,13.31
2019-05-07T00:59:29.507Z,13.24
2019-05-07T01:02:02.241Z,13.14
2019-05-07T01:04:33.242Z,13.09
2019-05-07T01:07:03.701Z,13.04
2019-05-07T01:09:34.511Z,12.92
2019-05-07T01:12:05.149Z,12.83
2019-05-07T01:14:35.821Z,12.80
2019-05-07T01:17:06.251Z,12.77
2019-05-07T01:19:36.950Z,12.76
2019-05-07T01:22:07.606Z,12.77
2019-05-07T01:24:38.081Z,12.72
2019-05-07T01:27:08.761Z,12.68
2019-05-07T01:29:39.195Z,12.68
2019-05-07T01:32:27.851Z,12.62
2019-05-07T01:35:05.901Z,12.54
2019-05-07T01:37:36.263Z,12.50
2019-05-07T01:40:07.150Z,12.42
2019-05-07T01:42:37.546Z,12.30
2019-05-07T01:45:09.622Z,12.23
2019-05-07T01:47:42.327Z,12.20
2019-05-07T01:50:13.359Z,12.17
2019-05-07T01:52:43.913Z,12.11
2019-05-07T01:55:14.419Z,12.05
2019-05-07T01:57:44.821Z,11.93
2019-05-07T02:00:15.736Z,11.99
2019-05-07T02:02:58.371Z,11.88
2019-05-07T02:05:56.954Z,11.92
2019-05-07T02:09:04.455Z,11.87
2019-05-07T02:11:39.544Z,11.87
2019-05-07T02:14:09.635Z,11.90
2019-05-07T02:16:41.866Z,11.87
2019-05-07T02:19:12.795Z,11.85
2019-05-07T02:21:43.383Z,11.74
2019-05-07T02:24:13.806Z,11.76
2019-05-07T02:26:44.382Z,11.76
2019-05-07T02:29:15.403Z,11.81
2019-05-07T02:31:45.727Z,11.82
2019-05-07T02:34:16.118Z,11.91
2019-05-07T02:36:46.535Z,11.84
2019-05-07T02:39:26.898Z,11.82
2019-05-07T02:41:57.239Z,11.83
2019-05-07T02:44:27.960Z,11.72
2019-05-07T02:47:13.017Z,11.72
2019-05-07T02:49:53.682Z,11.70
2019-05-07T02:52:43.791Z,11.56
2019-05-07T02:55:25.712Z,11.50
2019-05-07T02:57:56.212Z,11.40
2019-05-07T03:00:26.713Z,11.35
2019-05-07T03:02:57.521Z,11.18
2019-05-07T03:05:28.156Z,11.12
2019-05-07T03:07:58.549Z,11.04
2019-05-07T03:10:29.207Z,10.97
2019-05-07T03:13:02.706Z,10.88
2019-05-07T03:15:33.184Z,10.78
2019-05-07T03:18:04.619Z,10.75
2019-05-07T03:20:47.877Z,10.69
2019-05-07T03:23:22.848Z,10.65
2019-05-07T03:26:28.131Z,10.59
2019-05-07T03:29:03.680Z,10.54
2019-05-07T03:31:56.219Z,10.39
2019-05-07T03:34:48.923Z,10.39
2019-05-07T03:37:23.477Z,10.43
2019-05-07T03:39:54.356Z,10.49
2019-05-07T03:42:25.260Z,10.50
2019-05-07T03:45:03.841Z,10.53
2019-05-07T03:47:45.872Z,10.57
2019-05-07T03:50:16.734Z,10.58
2019-05-07T03:52:47.527Z,10.64
2019-05-07T03:55:18.136Z,10.62
2019-05-07T03:57:48.710Z,10.68
2019-05-07T04:00:19.448Z,10.77
2019-05-07T04:02:52.484Z,10.70
2019-05-07T04:05:23.189Z,10.81
2019-05-07T04:07:54.161Z,11.01
2019-05-07T04:10:24.578Z,11.16
2019-05-07T04:12:55.162Z,11.35
2019-05-07T04:15:25.943Z,11.40
2019-05-07T04:17:57.164Z,11.36
2019-05-07T04:20:27.732Z,11.34
2019-05-07T04:22:58.698Z,11.39
2019-05-07T04:25:45.480Z,11.34
2019-05-07T04:28:33.032Z,11.22
2019-05-07T04:31:03.162Z,11.30
2019-05-07T04:33:43.648Z,11.20
2019-05-07T04:36:34.450Z,11.27
2019-05-07T04:39:06.038Z,11.22
2019-05-07T04:41:36.607Z,11.29
2019-05-07T04:44:07.143Z,11.24
2019-05-07T04:46:37.647Z,11.30
2019-05-07T04:49:08.216Z,11.31
2019-05-07T04:52:04.178Z,11.19
2019-05-07T04:54:34.768Z,11.17
2019-05-07T04:57:09.006Z,11.21
2019-05-07T04:59:42.550Z,11.07
2019-05-07T05:02:16.811Z,11.08
2019-05-07T05:04:47.324Z,10.93
2019-05-07T05:07:19.067Z,10.95
2019-05-07T05:09:49.530Z,10.92
2019-05-07T05:12:22.455Z,11.02
2019-05-07T05:14:52.505Z,11.03
2019-05-07T05:17:22.934Z,11.10
2019-05-07T05:19:53.547Z,11.01
2019-05-07T05:22:42.457Z,11.07
2019-05-07T05:25:29.714Z,11.20
2019-05-07T05:28:02.058Z,11.37
2019-05-07T05:30:44.515Z,11.64
2019-05-07T05:33:15.019Z,11.97
2019-05-07T05:35:45.319Z,12.44
2019-05-07T05:38:15.853Z,13.79
2019-05-07T05:40:46.405Z,14.16
2019-05-07T05:43:29.170Z,14.23
2019-05-07T05:46:02.756Z,14.40
2019-05-07T05:48:33.565Z,14.40
2019-05-07T05:51:35.288Z,15.06
2019-05-07T05:54:37.247Z,16.39
2019-05-07T05:57:36.061Z,17.46
2019-05-07T06:00:27.581Z,16.97
2019-05-07T06:03:23.497Z,17.62
2019-05-07T06:06:19.171Z,17.44
2019-05-07T06:08:59.082Z,16.93
2019-05-07T06:11:46.843Z,16.34
2019-05-07T06:14:33.031Z,15.61
2019-05-07T06:17:19.470Z,15.37
2019-05-07T06:19:56.567Z,15.69
2019-05-07T06:22:52.930Z,15.07
2019-05-07T06:25:24.956Z,14.86
2019-05-07T06:27:55.876Z,14.86
2019-05-07T06:30:26.301Z,14.53
2019-05-07T06:32:56.817Z,14.20
2019-05-07T06:35:27.249Z,14.16
2019-05-07T06:37:57.756Z,13.85
2019-05-07T06:40:51.961Z,14.02
2019-05-07T06:43:33.904Z,14.08
2019-05-07T06:46:05.102Z,13.72
2019-05-07T06:48:42.329Z,13.72
2019-05-07T06:51:08.179Z,13.48
2019-05-07T06:53:38.690Z,13.43
2019-05-07T06:56:09.144Z,13.41
2019-05-07T06:58:45.084Z,13.45
2019-05-07T07:01:23.425Z,13.43
2019-05-07T07:04:07.764Z,13.55
2019-05-07T07:07:26.668Z,13.45
2019-05-07T07:10:02.724Z,13.55
2019-05-07T07:12:33.412Z,13.13
2019-05-07T07:15:04.469Z,13.13
2019-05-07T07:17:35.127Z,13.10
2019-05-07T07:20:06.215Z,13.14
2019-05-07T07:22:36.808Z,13.07
2019-05-07T07:25:08.945Z,13.12
2019-05-07T07:27:39.678Z,13.28
2019-05-07T07:30:29.402Z,13.38
2019-05-07T07:33:02.841Z,13.34
2019-05-07T07:35:33.389Z,13.57
2019-05-07T07:38:22.887Z,13.38
2019-05-07T07:41:05.398Z,13.32
2019-05-07T07:43:36.097Z,13.30
2019-05-07T07:46:06.597Z,13.29
2019-05-07T07:48:37.567Z,13.48
2019-05-07T07:51:07.968Z,13.61
2019-05-07T07:53:38.666Z,13.71
2019-05-07T07:56:51.825Z,14.04
2019-05-07T07:59:42.107Z,14.04
2019-05-07T08:02:32.212Z,14.01
2019-05-07T08:05:04.722Z,14.26
2019-05-07T08:07:35.618Z,14.27
2019-05-07T08:10:07.645Z,13.99
2019-05-07T08:12:38.225Z,14.11
2019-05-07T08:15:16.647Z,14.16
2019-05-07T08:17:42.713Z,14.18
2019-05-07T08:20:14.232Z,14.02
2019-05-07T08:22:44.666Z,13.85
2019-05-07T08:25:15.472Z,13.76
2019-05-07T08:27:46.095Z,13.74
2019-05-07T08:30:22.243Z,13.54
2019-05-07T08:33:09.665Z,13.61
2019-05-07T08:35:45.328Z,13.38
2019-05-07T08:38:15.869Z,13.27
2019-05-07T08:40:46.349Z,13.49
2019-05-07T08:43:16.737Z,13.65
2019-05-07T08:46:18.373Z,13.99
2019-05-07T08:48:50.242Z,14.17
2019-05-07T08:51:22.361Z,14.52
2019-05-07T08:54:05.852Z,14.76
2019-05-07T08:56:37.888Z,14.99
2019-05-07T08:59:08.953Z,15.12
2019-05-07T09:01:43.253Z,15.35
2019-05-07T09:04:13.929Z,15.22
2019-05-07T09:06:44.365Z,15.52
2019-05-07T09:09:16.656Z,15.51
2019-05-07T09:11:48.046Z,15.63
2019-05-07T09:14:18.481Z,15.82
2019-05-07T09:16:49.218Z,15.71
2019-05-07T09:19:21.568Z,15.62
2019-05-07T09:21:52.913Z,15.93
2019-05-07T09:24:23.626Z,16.13
2019-05-07T09:27:09.171Z,15.92
2019-05-07T09:29:52.782Z,15.65
2019-05-07T09:32:32.696Z,15.49
2019-05-07T09:35:03.676Z,15.49
2019-05-07T09:37:34.205Z,15.61
2019-05-07T09:40:04.813Z,15.74
2019-05-07T09:42:35.752Z,15.78
2019-05-07T09:45:07.683Z,15.52
2019-05-07T09:47:38.371Z,15.26
2019-05-07T09:50:09.075Z,15.02
2019-05-07T09:52:39.864Z,14.93
2019-05-07T09:55:16.585Z,14.88
2019-05-07T09:57:44.045Z,14.85
2019-05-07T10:00:15.167Z,14.76
2019-05-07T10:02:45.816Z,14.80
2019-05-07T10:05:16.783Z,14.83
2019-05-07T10:07:47.402Z,15.01
2019-05-07T10:10:18.182Z,14.88
2019-05-07T10:12:58.174Z,14.91
2019-05-07T10:15:28.779Z,14.85
2019-05-07T10:18:12.921Z,14.78
2019-05-07T10:20:43.562Z,14.75
2019-05-07T10:23:22.977Z,14.81
2019-05-07T10:25:54.030Z,14.81
2019-05-07T10:28:24.629Z,14.90
2019-05-07T10:30:56.078Z,15.06
2019-05-07T10:33:26.609Z,14.82
2019-05-07T10:35:57.150Z,14.75
2019-05-07T10:38:27.857Z,14.68
2019-05-07T10:40:58.587Z,14.70
2019-05-07T10:43:29.342Z,14.59
2019-05-07T10:46:22.110Z,14.72
2019-05-07T10:49:17.438Z,14.70
2019-05-07T10:51:47.896Z,14.68
2019-05-07T10:54:18.876Z,14.70
2019-05-07T10:56:49.635Z,14.78
2019-05-07T10:59:22.526Z,14.89
2019-05-07T11:02:07.030Z,14.80
2019-05-07T11:08:18.482Z,14.97
2019-05-07T11:17:28.162Z,15.85
2019-05-07T11:20:49.303Z,15.77
2019-05-07T11:37:02.130Z,15.95
2019-05-07T11:39:33.209Z,16.28
2019-05-07T11:45:37.296Z,16.39
2019-05-07T11:48:08.147Z,15.99
2019-05-07T11:50:45.642Z,16.16
2019-05-07T11:53:17.865Z,16.08
2019-05-07T11:55:48.368Z,15.98
2019-05-07T11:58:19.368Z,15.82
2019-05-07T12:00:58.701Z,15.70
2019-05-07T12:03:29.411Z,15.59
2019-05-07T12:06:02.106Z,15.51
2019-05-07T12:08:42.885Z,15.33
2019-05-07T12:11:05.560Z,15.29
2019-05-07T12:13:36.453Z,15.19
2019-05-07T12:16:07.450Z,15.29
2019-05-07T12:18:38.449Z,15.17
2019-05-07T12:21:18.320Z,14.98
2019-05-07T12:23:42.226Z,14.72
2019-05-07T12:26:12.998Z,14.73
2019-05-07T12:28:43.942Z,14.64
2019-05-07T12:31:36.952Z,14.46
2019-05-07T12:34:11.883Z,14.39
2019-05-07T12:36:42.673Z,14.31
2019-05-07T12:39:14.572Z,14.25
2019-05-07T12:41:45.440Z,14.29
2019-05-07T12:44:16.107Z,14.17
2019-05-07T12:46:46.671Z,14.19
2019-05-07T12:49:17.260Z,14.12
2019-05-07T12:52:05.946Z,13.95
2019-05-07T12:54:45.787Z,13.93
2019-05-07T12:57:16.706Z,13.89
2019-05-07T12:59:49.634Z,13.85
2019-05-07T13:02:48.891Z,13.80
2019-05-07T13:05:20.053Z,13.73
2019-05-07T13:07:55.189Z,13.73
2019-05-07T13:10:25.910Z,13.68
2019-05-07T13:12:56.829Z,13.65
2019-05-07T13:15:28.438Z,13.47
2019-05-07T13:17:59.256Z,13.49
2019-05-07T13:20:31.996Z,13.58
2019-05-07T13:23:03.629Z,13.51
2019-05-07T13:25:34.329Z,13.58
2019-05-07T13:28:06.696Z,13.72
2019-05-07T13:30:37.637Z,13.73
2019-05-07T13:33:08.412Z,13.79
2019-05-07T13:35:39.537Z,14.06
2019-05-07T13:38:27.616Z,14.23
2019-05-07T13:41:05.308Z,14.27
2019-05-07T13:43:41.200Z,14.37
2019-05-07T13:46:14.086Z,14.35
2019-05-07T13:49:40.112Z,14.00
2019-05-07T13:52:11.800Z,13.97
2019-05-07T13:55:18.312Z,14.19
2019-05-07T14:01:43.766Z,14.13
2019-05-07T14:04:35.691Z,14.19
2019-05-07T14:07:23.645Z,14.18
2019-05-07T14:10:09.676Z,14.25
2019-05-07T14:13:24.324Z,14.32
2019-05-07T14:16:15.019Z,14.33
2019-05-07T14:18:45.801Z,14.37
2019-05-07T14:32:12.801Z,14.36
2019-05-07T14:35:02.161Z,14.20
2019-05-07T14:37:38.934Z,14.10
2019-05-07T14:40:10.062Z,14.02
2019-05-07T14:42:45.623Z,13.99
2019-05-07T14:45:18.343Z,13.99
2019-05-07T14:47:49.296Z,13.86
2019-05-07T14:50:19.929Z,13.97
2019-05-07T14:59:59.707Z,13.80
2019-05-07T15:03:12.430Z,13.81
2019-05-07T15:05:43.230Z,13.75
2019-05-07T15:22:18.493Z,14.72
2019-05-07T15:24:49.131Z,14.83
2019-05-07T15:28:23.177Z,14.89
2019-05-07T15:31:05.722Z,14.89
2019-05-07T15:33:36.141Z,14.80
2019-05-07T15:36:06.904Z,14.83
2019-05-07T15:38:37.617Z,14.86
2019-05-07T15:41:08.166Z,14.76
2019-05-07T15:43:38.660Z,14.73
2019-05-07T15:46:09.425Z,14.51
2019-05-07T15:48:41.888Z,14.59
2019-05-07T15:51:12.865Z,14.68
2019-05-07T16:05:47.588Z,14.64
2019-05-07T16:08:18.814Z,14.59
2019-05-07T16:10:49.213Z,14.47
2019-05-07T16:13:24.639Z,14.43
2019-05-07T16:15:55.139Z,14.17
2019-05-07T16:18:32.680Z,14.19
2019-05-07T16:21:05.012Z,14.12
2019-05-07T16:23:35.679Z,14.10
2019-05-07T16:26:06.233Z,14.00
2019-05-07T16:28:36.834Z,13.91
2019-05-07T16:31:07.456Z,13.94
2019-05-07T16:33:38.048Z,13.84
2019-05-07T16:36:09.655Z,13.71
2019-05-07T16:38:41.843Z,13.59
2019-05-07T16:41:13.574Z,13.51
2019-05-07T16:43:46.164Z,13.29
2019-05-07T16:46:16.994Z,13.16
2019-05-07T16:48:48.645Z,13.21
2019-05-07T16:51:19.133Z,13.20
2019-05-07T16:53:49.494Z,13.23
2019-05-07T16:56:20.113Z,13.20
2019-05-07T16:58:56.117Z,13.11
2019-05-07T17:01:27.420Z,13.16
2019-05-07T17:04:02.595Z,13.00
2019-05-07T17:06:35.642Z,13.02
2019-05-07T17:09:13.621Z,12.95
2019-05-07T17:11:45.441Z,12.85
2019-05-07T17:14:16.983Z,12.66
2019-05-07T17:16:51.583Z,12.61
2019-05-07T17:19:22.517Z,12.64
2019-05-07T17:21:53.057Z,12.66
2019-05-07T17:24:26.739Z,12.59
2019-05-07T17:26:59.044Z,12.57
2019-05-07T17:29:32.136Z,12.47
2019-05-07T17:32:06.670Z,12.53
2019-05-07T17:34:37.370Z,12.48
2019-05-07T17:37:12.661Z,12.40
2019-05-07T17:39:43.315Z,12.48
2019-05-07T17:42:17.643Z,12.41
2019-05-07T17:44:48.152Z,12.45
2019-05-07T17:47:21.816Z,12.41
2019-05-07T17:49:52.908Z,12.34
2019-05-07T17:52:24.760Z,12.24
2019-05-07T17:54:55.415Z,12.21
2019-05-07T17:57:25.883Z,12.15
2019-05-07T17:59:57.613Z,12.18
2019-05-07T18:02:38.908Z,12.20
2019-05-07T18:05:11.887Z,12.23
2019-05-07T18:07:42.478Z,12.19
2019-05-07T18:10:13.994Z,12.11
2019-05-07T18:12:45.566Z,12.18
2019-05-07T18:15:16.244Z,12.10
2019-05-07T18:17:57.184Z,12.02
2019-05-07T18:20:29.208Z,12.06
2019-05-07T18:23:02.638Z,12.02
2019-05-07T18:25:38.982Z,11.97
2019-05-07T18:28:12.269Z,12.07
2019-05-07T18:30:49.497Z,12.04
2019-05-07T18:33:37.896Z,12.03
2019-05-07T18:36:08.612Z,12.08
2019-05-07T18:38:39.462Z,11.92
2019-05-07T18:41:12.136Z,11.98
2019-05-07T18:43:43.612Z,11.89
2019-05-07T18:46:17.190Z,11.89
2019-05-07T18:48:47.992Z,11.87
2019-05-07T18:51:20.684Z,11.85
2019-05-07T18:53:54.941Z,11.86
2019-05-07T18:56:42.022Z,11.93
2019-05-07T18:59:07.620Z,11.91
2019-05-07T19:01:42.139Z,11.84
2019-05-07T19:04:13.150Z,11.81
2019-05-07T19:06:43.635Z,11.86
2019-05-07T19:09:14.184Z,11.82
2019-05-07T19:11:45.735Z,11.83
2019-05-07T19:14:16.358Z,11.78
2019-05-07T19:16:47.003Z,11.83
2019-05-07T19:19:18.609Z,11.79
2019-05-07T19:21:49.184Z,11.76
2019-05-07T19:24:21.944Z,11.82
2019-05-07T19:26:52.875Z,11.80
2019-05-07T19:29:25.225Z,11.78
2019-05-07T19:31:55.599Z,11.79
2019-05-07T19:34:26.019Z,11.78
2019-05-07T19:36:56.495Z,11.64
2019-05-07T19:39:29.473Z,11.62
2019-05-07T19:41:59.924Z,11.73
2019-05-07T19:44:38.387Z,11.73
2019-05-07T19:47:09.109Z,11.61
2019-05-07T19:49:41.822Z,11.51
2019-05-07T19:52:12.587Z,11.49
2019-05-07T19:54:57.693Z,11.49
2019-05-07T19:57:23.001Z,11.47
2019-05-07T19:59:52.684Z,11.49
2019-05-07T20:02:27.116Z,11.55
2019-05-07T20:04:58.984Z,11.58
2019-05-07T20:07:29.448Z,11.66
2019-05-07T20:10:02.529Z,11.62
2019-05-07T20:12:32.778Z,11.64
2019-05-07T20:15:03.370Z,11.70
2019-05-07T20:17:34.627Z,11.75
2019-05-07T20:20:05.227Z,11.73
2019-05-07T20:22:35.551Z,11.76
2019-05-07T20:25:18.132Z,11.77
2019-05-07T20:27:38.482Z,11.76
2019-05-07T20:30:12.215Z,11.71
2019-05-07T20:32:43.959Z,11.67
2019-05-07T20:35:14.631Z,11.69
2019-05-07T20:37:45.348Z,11.71
2019-05-07T20:40:17.337Z,11.73
2019-05-07T20:42:47.930Z,11.71
2019-05-07T20:45:18.871Z,11.73
2019-05-07T20:47:49.332Z,11.78
2019-05-07T20:50:22.160Z,11.74
2019-05-07T20:52:52.471Z,11.77
2019-05-07T20:55:43.879Z,11.63
2019-05-07T20:58:15.563Z,11.63
